sensor_id;sensor_type;location;lat;lon;timestamp;P1;durP1;ratioP1;P2;durP2;ratioP2
21183;SDS011;18176;49.502;11.754;2023-08-01T00:04:09;8.07;;;4.75;;
21183;SDS011;18176;49.502;11.754;2023-08-01T00:08:09;7.97;;;4.60;;
21183;SDS011;18176;49.502;11.754;2023-08-01T00:12:10;9.05;;;4.90;;
21183;SDS011;18176;49.502;11.754;2023-08-01T00:16:11;6.50;;;4.70;;
21183;SDS011;18176;49.502;11.754;2023-08-01T00:20:14;8.18;;;4.72;;
21183;SDS011;18176;49.502;11.754;2023-08-01T00:24:15;9.13;;;5.00;;
21183;SDS011;18176;49.502;11.754;2023-08-01T00:28:15;8.48;;;5.22;;
21183;SDS011;18176;49.502;11.754;2023-08-01T00:32:15;9.68;;;4.63;;
21183;SDS011;18176;49.502;11.754;2023-08-01T00:36:18;7.72;;;4.95;;
21183;SDS011;18176;49.502;11.754;2023-08-01T00:40:19;8.77;;;5.03;;
21183;SDS011;18176;49.502;11.754;2023-08-01T00:44:19;11.23;;;4.88;;
21183;SDS011;18176;49.502;11.754;2023-08-01T00:48:20;8.27;;;5.53;;
21183;SDS011;18176;49.502;11.754;2023-08-01T00:52:23;7.85;;;5.50;;
21183;SDS011;18176;49.502;11.754;2023-08-01T00:56:23;8.98;;;5.40;;
21183;SDS011;18176;49.502;11.754;2023-08-01T01:00:24;9.15;;;4.88;;
21183;SDS011;18176;49.502;11.754;2023-08-01T01:04:25;9.90;;;5.20;;
21183;SDS011;18176;49.502;11.754;2023-08-01T01:08:28;12.13;;;5.15;;
21183;SDS011;18176;49.502;11.754;2023-08-01T01:12:29;8.27;;;4.90;;
21183;SDS011;18176;49.502;11.754;2023-08-01T01:16:30;9.55;;;5.43;;
21183;SDS011;18176;49.502;11.754;2023-08-01T01:20:33;10.35;;;5.32;;
21183;SDS011;18176;49.502;11.754;2023-08-01T01:24:34;12.13;;;5.50;;
21183;SDS011;18176;49.502;11.754;2023-08-01T01:28:36;11.80;;;5.63;;
21183;SDS011;18176;49.502;11.754;2023-08-01T01:32:39;7.55;;;5.03;;
21183;SDS011;18176;49.502;11.754;2023-08-01T01:36:43;10.18;;;5.07;;
21183;SDS011;18176;49.502;11.754;2023-08-01T01:40:44;9.82;;;4.75;;
21183;SDS011;18176;49.502;11.754;2023-08-01T01:44:49;10.68;;;5.28;;
21183;SDS011;18176;49.502;11.754;2023-08-01T01:48:59;8.95;;;5.05;;
21183;SDS011;18176;49.502;11.754;2023-08-01T01:53:14;7.55;;;4.70;;
21183;SDS011;18176;49.502;11.754;2023-08-01T01:57:27;9.55;;;5.10;;
21183;SDS011;18176;49.502;11.754;2023-08-01T02:01:47;7.03;;;4.60;;
21183;SDS011;18176;49.502;11.754;2023-08-01T02:06:00;6.45;;;4.18;;
21183;SDS011;18176;49.502;11.754;2023-08-01T02:10:52;9.02;;;4.47;;
21183;SDS011;18176;49.502;11.754;2023-08-01T02:15:41;6.90;;;4.30;;
21183;SDS011;18176;49.502;11.754;2023-08-01T02:20:05;7.82;;;4.35;;
21183;SDS011;18176;49.502;11.754;2023-08-01T02:24:41;9.00;;;4.70;;
21183;SDS011;18176;49.502;11.754;2023-08-01T02:28:52;8.52;;;4.68;;
21183;SDS011;18176;49.502;11.754;2023-08-01T02:33:20;9.52;;;5.00;;
21183;SDS011;18176;49.502;11.754;2023-08-01T02:37:35;9.65;;;5.15;;
21183;SDS011;18176;49.502;11.754;2023-08-01T02:41:47;11.20;;;4.78;;
21183;SDS011;18176;49.502;11.754;2023-08-01T02:45:55;8.30;;;4.55;;
21183;SDS011;18176;49.502;11.754;2023-08-01T02:50:01;11.50;;;5.10;;
21183;SDS011;18176;49.502;11.754;2023-08-01T02:54:08;10.48;;;5.03;;
21183;SDS011;18176;49.502;11.754;2023-08-01T02:58:15;12.90;;;5.10;;
21183;SDS011;18176;49.502;11.754;2023-08-01T03:02:25;7.95;;;5.18;;
21183;SDS011;18176;49.502;11.754;2023-08-01T03:06:36;8.10;;;4.78;;
21183;SDS011;18176;49.502;11.754;2023-08-01T03:10:43;7.28;;;4.63;;
21183;SDS011;18176;49.502;11.754;2023-08-01T03:14:58;9.10;;;4.57;;
21183;SDS011;18176;49.502;11.754;2023-08-01T03:19:14;9.35;;;4.90;;
21183;SDS011;18176;49.502;11.754;2023-08-01T03:23:19;8.15;;;5.20;;
21183;SDS011;18176;49.502;11.754;2023-08-01T03:27:23;11.07;;;5.38;;
21183;SDS011;18176;49.502;11.754;2023-08-01T03:31:32;8.15;;;4.40;;
21183;SDS011;18176;49.502;11.754;2023-08-01T03:35:35;6.72;;;4.70;;
21183;SDS011;18176;49.502;11.754;2023-08-01T03:39:35;8.65;;;5.00;;
21183;SDS011;18176;49.502;11.754;2023-08-01T03:43:35;10.82;;;5.30;;
21183;SDS011;18176;49.502;11.754;2023-08-01T03:47:36;9.80;;;5.20;;
21183;SDS011;18176;49.502;11.754;2023-08-01T03:51:39;9.07;;;5.28;;
21183;SDS011;18176;49.502;11.754;2023-08-01T03:55:40;10.38;;;5.63;;
21183;SDS011;18176;49.502;11.754;2023-08-01T03:59:43;9.15;;;5.72;;
21183;SDS011;18176;49.502;11.754;2023-08-01T04:03:43;7.55;;;5.07;;
21183;SDS011;18176;49.502;11.754;2023-08-01T04:07:46;9.15;;;5.05;;
21183;SDS011;18176;49.502;11.754;2023-08-01T04:11:46;9.15;;;5.05;;
21183;SDS011;18176;49.502;11.754;2023-08-01T04:15:47;10.63;;;6.10;;
21183;SDS011;18176;49.502;11.754;2023-08-01T04:19:48;9.57;;;5.60;;
21183;SDS011;18176;49.502;11.754;2023-08-01T04:23:51;8.18;;;5.28;;
21183;SDS011;18176;49.502;11.754;2023-08-01T04:27:52;7.55;;;4.88;;
21183;SDS011;18176;49.502;11.754;2023-08-01T04:31:52;10.30;;;5.38;;
21183;SDS011;18176;49.502;11.754;2023-08-01T04:35:53;8.02;;;4.97;;
21183;SDS011;18176;49.502;11.754;2023-08-01T04:39:56;10.63;;;5.28;;
21183;SDS011;18176;49.502;11.754;2023-08-01T04:43:56;9.35;;;5.35;;
21183;SDS011;18176;49.502;11.754;2023-08-01T04:47:58;7.82;;;4.60;;
21183;SDS011;18176;49.502;11.754;2023-08-01T04:52:02;9.73;;;5.65;;
21183;SDS011;18176;49.502;11.754;2023-08-01T04:56:07;6.85;;;5.25;;
21183;SDS011;18176;49.502;11.754;2023-08-01T05:00:08;9.90;;;5.10;;
21183;SDS011;18176;49.502;11.754;2023-08-01T05:04:10;9.80;;;5.60;;
21183;SDS011;18176;49.502;11.754;2023-08-01T05:08:11;9.60;;;5.80;;
21183;SDS011;18176;49.502;11.754;2023-08-01T05:12:14;8.70;;;5.30;;
21183;SDS011;18176;49.502;11.754;2023-08-01T05:16:14;9.32;;;5.50;;
21183;SDS011;18176;49.502;11.754;2023-08-01T05:20:15;10.25;;;5.47;;
21183;SDS011;18176;49.502;11.754;2023-08-01T05:24:15;7.72;;;5.05;;
21183;SDS011;18176;49.502;11.754;2023-08-01T05:28:18;8.68;;;5.50;;
21183;SDS011;18176;49.502;11.754;2023-08-01T05:32:18;10.65;;;5.47;;
21183;SDS011;18176;49.502;11.754;2023-08-01T05:36:21;9.27;;;5.00;;
21183;SDS011;18176;49.502;11.754;2023-08-01T05:40:21;8.20;;;4.70;;
21183;SDS011;18176;49.502;11.754;2023-08-01T05:44:24;9.27;;;5.22;;
21183;SDS011;18176;49.502;11.754;2023-08-01T05:48:25;10.15;;;5.38;;
21183;SDS011;18176;49.502;11.754;2023-08-01T05:52:30;9.13;;;5.30;;
21183;SDS011;18176;49.502;11.754;2023-08-01T05:56:32;7.30;;;4.90;;
21183;SDS011;18176;49.502;11.754;2023-08-01T06:00:39;9.07;;;5.18;;
21183;SDS011;18176;49.502;11.754;2023-08-01T06:04:43;8.05;;;4.80;;
21183;SDS011;18176;49.502;11.754;2023-08-01T06:08:46;8.32;;;5.13;;
21183;SDS011;18176;49.502;11.754;2023-08-01T06:12:50;9.50;;;5.00;;
21183;SDS011;18176;49.502;11.754;2023-08-01T06:16:57;7.70;;;5.00;;
21183;SDS011;18176;49.502;11.754;2023-08-01T06:20:58;5.85;;;4.80;;
21183;SDS011;18176;49.502;11.754;2023-08-01T06:25:00;8.35;;;5.40;;
21183;SDS011;18176;49.502;11.754;2023-08-01T06:29:06;10.32;;;5.60;;
21183;SDS011;18176;49.502;11.754;2023-08-01T06:33:13;11.38;;;5.15;;
21183;SDS011;18176;49.502;11.754;2023-08-01T06:37:15;8.40;;;4.70;;
21183;SDS011;18176;49.502;11.754;2023-08-01T06:41:20;7.53;;;4.80;;
21183;SDS011;18176;49.502;11.754;2023-08-01T06:45:25;7.63;;;4.65;;
21183;SDS011;18176;49.502;11.754;2023-08-01T06:49:36;10.77;;;4.88;;
21183;SDS011;18176;49.502;11.754;2023-08-01T06:53:42;11.55;;;4.63;;
21183;SDS011;18176;49.502;11.754;2023-08-01T06:57:45;9.02;;;4.65;;
21183;SDS011;18176;49.502;11.754;2023-08-01T07:01:49;5.55;;;4.30;;
21183;SDS011;18176;49.502;11.754;2023-08-01T07:05:54;11.00;;;4.78;;
21183;SDS011;18176;49.502;11.754;2023-08-01T07:09:55;7.50;;;4.47;;
21183;SDS011;18176;49.502;11.754;2023-08-01T07:14:00;8.15;;;4.47;;
21183;SDS011;18176;49.502;11.754;2023-08-01T07:18:02;9.13;;;5.05;;
21183;SDS011;18176;49.502;11.754;2023-08-01T07:22:06;8.75;;;4.40;;
21183;SDS011;18176;49.502;11.754;2023-08-01T07:26:09;5.88;;;4.07;;
21183;SDS011;18176;49.502;11.754;2023-08-01T07:30:18;8.48;;;4.50;;
21183;SDS011;18176;49.502;11.754;2023-08-01T07:34:19;6.93;;;4.20;;
21183;SDS011;18176;49.502;11.754;2023-08-01T07:38:22;6.40;;;4.10;;
21183;SDS011;18176;49.502;11.754;2023-08-01T07:42:23;5.72;;;3.70;;
21183;SDS011;18176;49.502;11.754;2023-08-01T07:46:23;6.63;;;3.45;;
21183;SDS011;18176;49.502;11.754;2023-08-01T07:50:24;6.00;;;3.55;;
21183;SDS011;18176;49.502;11.754;2023-08-01T07:54:28;6.38;;;3.63;;
21183;SDS011;18176;49.502;11.754;2023-08-01T07:58:28;5.55;;;3.60;;
21183;SDS011;18176;49.502;11.754;2023-08-01T08:02:29;6.45;;;3.75;;
21183;SDS011;18176;49.502;11.754;2023-08-01T08:06:29;6.53;;;3.72;;
21183;SDS011;18176;49.502;11.754;2023-08-01T08:10:32;6.10;;;4.00;;
21183;SDS011;18176;49.502;11.754;2023-08-01T08:14:34;7.63;;;4.28;;
21183;SDS011;18176;49.502;11.754;2023-08-01T08:18:35;5.60;;;3.55;;
21183;SDS011;18176;49.502;11.754;2023-08-01T08:22:35;7.30;;;4.00;;
21183;SDS011;18176;49.502;11.754;2023-08-01T08:26:38;5.35;;;3.83;;
21183;SDS011;18176;49.502;11.754;2023-08-01T08:30:39;6.28;;;4.00;;
21183;SDS011;18176;49.502;11.754;2023-08-01T08:34:39;7.00;;;4.22;;
21183;SDS011;18176;49.502;11.754;2023-08-01T08:38:39;9.15;;;4.68;;
21183;SDS011;18176;49.502;11.754;2023-08-01T08:42:42;7.05;;;4.00;;
21183;SDS011;18176;49.502;11.754;2023-08-01T08:46:48;6.18;;;3.95;;
21183;SDS011;18176;49.502;11.754;2023-08-01T08:50:52;9.77;;;4.00;;
21183;SDS011;18176;49.502;11.754;2023-08-01T08:54:55;6.50;;;3.90;;
21183;SDS011;18176;49.502;11.754;2023-08-01T08:58:59;6.60;;;3.72;;
21183;SDS011;18176;49.502;11.754;2023-08-01T09:03:00;5.78;;;3.83;;
21183;SDS011;18176;49.502;11.754;2023-08-01T09:07:02;6.03;;;3.78;;
21183;SDS011;18176;49.502;11.754;2023-08-01T09:11:08;5.80;;;3.47;;
21183;SDS011;18176;49.502;11.754;2023-08-01T09:15:11;4.75;;;3.55;;
21183;SDS011;18176;49.502;11.754;2023-08-01T09:19:16;6.55;;;3.70;;
21183;SDS011;18176;49.502;11.754;2023-08-01T09:23:17;7.47;;;3.80;;
21183;SDS011;18176;49.502;11.754;2023-08-01T09:27:17;4.07;;;3.50;;
21183;SDS011;18176;49.502;11.754;2023-08-01T09:31:28;4.43;;;3.17;;
21183;SDS011;18176;49.502;11.754;2023-08-01T09:35:30;4.50;;;3.50;;
21183;SDS011;18176;49.502;11.754;2023-08-01T09:39:40;8.65;;;3.78;;
21183;SDS011;18176;49.502;11.754;2023-08-01T09:43:44;4.25;;;3.15;;
21183;SDS011;18176;49.502;11.754;2023-08-01T09:47:48;4.85;;;3.50;;
21183;SDS011;18176;49.502;11.754;2023-08-01T09:51:49;6.35;;;3.53;;
21183;SDS011;18176;49.502;11.754;2023-08-01T09:55:50;4.03;;;3.28;;
21183;SDS011;18176;49.502;11.754;2023-08-01T09:59:54;4.68;;;3.40;;
21183;SDS011;18176;49.502;11.754;2023-08-01T10:04:09;5.63;;;3.50;;
21183;SDS011;18176;49.502;11.754;2023-08-01T10:08:12;5.28;;;3.60;;
21183;SDS011;18176;49.502;11.754;2023-08-01T10:12:17;5.82;;;3.15;;
21183;SDS011;18176;49.502;11.754;2023-08-01T10:16:17;5.53;;;3.53;;
21183;SDS011;18176;49.502;11.754;2023-08-01T10:20:20;5.72;;;4.00;;
21183;SDS011;18176;49.502;11.754;2023-08-01T10:24:22;6.60;;;4.03;;
21183;SDS011;18176;49.502;11.754;2023-08-01T10:28:31;6.40;;;4.00;;
21183;SDS011;18176;49.502;11.754;2023-08-01T10:32:33;4.32;;;3.67;;
21183;SDS011;18176;49.502;11.754;2023-08-01T10:36:38;6.28;;;3.53;;
21183;SDS011;18176;49.502;11.754;2023-08-01T10:40:40;3.90;;;2.97;;
21183;SDS011;18176;49.502;11.754;2023-08-01T10:44:44;4.50;;;3.10;;
21183;SDS011;18176;49.502;11.754;2023-08-01T10:48:49;3.92;;;2.83;;
21183;SDS011;18176;49.502;11.754;2023-08-01T10:53:00;4.50;;;3.25;;
21183;SDS011;18176;49.502;11.754;2023-08-01T10:57:06;5.28;;;3.30;;
21183;SDS011;18176;49.502;11.754;2023-08-01T11:01:07;3.85;;;3.00;;
21183;SDS011;18176;49.502;11.754;2023-08-01T11:05:08;4.38;;;3.00;;
21183;SDS011;18176;49.502;11.754;2023-08-01T11:09:20;4.18;;;3.10;;
21183;SDS011;18176;49.502;11.754;2023-08-01T11:13:22;3.78;;;2.75;;
21183;SDS011;18176;49.502;11.754;2023-08-01T11:17:23;4.28;;;3.00;;
21183;SDS011;18176;49.502;11.754;2023-08-01T11:21:25;3.58;;;2.83;;
21183;SDS011;18176;49.502;11.754;2023-08-01T11:25:36;4.40;;;3.00;;
21183;SDS011;18176;49.502;11.754;2023-08-01T11:29:39;3.45;;;2.90;;
21183;SDS011;18176;49.502;11.754;2023-08-01T11:33:40;3.40;;;2.67;;
21183;SDS011;18176;49.502;11.754;2023-08-01T11:37:41;2.85;;;2.42;;
21183;SDS011;18176;49.502;11.754;2023-08-01T11:41:44;2.83;;;2.53;;
21183;SDS011;18176;49.502;11.754;2023-08-01T11:45:48;3.70;;;2.47;;
21183;SDS011;18176;49.502;11.754;2023-08-01T11:49:51;4.82;;;2.97;;
21183;SDS011;18176;49.502;11.754;2023-08-01T11:53:57;3.03;;;2.35;;
21183;SDS011;18176;49.502;11.754;2023-08-01T11:58:02;3.58;;;2.83;;
21183;SDS011;18176;49.502;11.754;2023-08-01T12:02:02;4.30;;;2.67;;
21183;SDS011;18176;49.502;11.754;2023-08-01T12:06:03;4.22;;;2.65;;
21183;SDS011;18176;49.502;11.754;2023-08-01T12:10:05;3.47;;;2.65;;
21183;SDS011;18176;49.502;11.754;2023-08-01T12:14:10;3.80;;;2.97;;
21183;SDS011;18176;49.502;11.754;2023-08-01T12:18:18;3.10;;;2.30;;
21183;SDS011;18176;49.502;11.754;2023-08-01T12:22:40;3.88;;;2.28;;
21183;SDS011;18176;49.502;11.754;2023-08-01T12:26:41;2.55;;;2.30;;
21183;SDS011;18176;49.502;11.754;2023-08-01T12:30:44;2.60;;;2.40;;
21183;SDS011;18176;49.502;11.754;2023-08-01T12:34:45;4.15;;;2.20;;
21183;SDS011;18176;49.502;11.754;2023-08-01T12:38:45;2.20;;;2.00;;
21183;SDS011;18176;49.502;11.754;2023-08-01T12:42:46;3.30;;;2.30;;
21183;SDS011;18176;49.502;11.754;2023-08-01T12:46:49;3.70;;;2.28;;
21183;SDS011;18176;49.502;11.754;2023-08-01T12:50:50;1.83;;;1.33;;
21183;SDS011;18176;49.502;11.754;2023-08-01T12:54:51;4.88;;;2.97;;
21183;SDS011;18176;49.502;11.754;2023-08-01T12:58:51;1.90;;;1.50;;
21183;SDS011;18176;49.502;11.754;2023-08-01T13:02:54;2.50;;;1.98;;
21183;SDS011;18176;49.502;11.754;2023-08-01T13:06:54;1.80;;;1.30;;
21183;SDS011;18176;49.502;11.754;2023-08-01T13:10:56;2.83;;;1.30;;
21183;SDS011;18176;49.502;11.754;2023-08-01T13:14:57;1.33;;;1.10;;
21183;SDS011;18176;49.502;11.754;2023-08-01T13:19:13;1.48;;;1.27;;
21183;SDS011;18176;49.502;11.754;2023-08-01T13:23:14;1.98;;;1.17;;
21183;SDS011;18176;49.502;11.754;2023-08-01T13:27:14;1.60;;;1.42;;
21183;SDS011;18176;49.502;11.754;2023-08-01T13:31:14;1.30;;;1.20;;
21183;SDS011;18176;49.502;11.754;2023-08-01T13:35:17;1.55;;;1.20;;
21183;SDS011;18176;49.502;11.754;2023-08-01T13:39:18;1.63;;;1.20;;
21183;SDS011;18176;49.502;11.754;2023-08-01T13:43:18;1.30;;;1.20;;
21183;SDS011;18176;49.502;11.754;2023-08-01T13:47:18;1.50;;;1.40;;
21183;SDS011;18176;49.502;11.754;2023-08-01T13:51:22;1.38;;;1.27;;
21183;SDS011;18176;49.502;11.754;2023-08-01T13:55:29;1.63;;;1.20;;
21183;SDS011;18176;49.502;11.754;2023-08-01T13:59:35;1.60;;;1.30;;
21183;SDS011;18176;49.502;11.754;2023-08-01T14:03:38;1.77;;;1.10;;
21183;SDS011;18176;49.502;11.754;2023-08-01T14:07:46;1.35;;;1.20;;
21183;SDS011;18176;49.502;11.754;2023-08-01T14:11:52;1.10;;;1.00;;
21183;SDS011;18176;49.502;11.754;2023-08-01T14:15:57;1.67;;;1.08;;
21183;SDS011;18176;49.502;11.754;2023-08-01T14:20:01;1.00;;;1.00;;
21183;SDS011;18176;49.502;11.754;2023-08-01T14:24:11;1.40;;;1.30;;
21183;SDS011;18176;49.502;11.754;2023-08-01T14:28:19;1.05;;;1.00;;
21183;SDS011;18176;49.502;11.754;2023-08-01T14:32:24;2.15;;;1.00;;
21183;SDS011;18176;49.502;11.754;2023-08-01T14:36:30;2.17;;;1.30;;
21183;SDS011;18176;49.502;11.754;2023-08-01T14:40:40;1.67;;;1.25;;
21183;SDS011;18176;49.502;11.754;2023-08-01T14:45:04;1.20;;;1.10;;
21183;SDS011;18176;49.502;11.754;2023-08-01T14:49:07;2.95;;;1.85;;
21183;SDS011;18176;49.502;11.754;2023-08-01T14:53:14;3.88;;;2.15;;
21183;SDS011;18176;49.502;11.754;2023-08-01T14:57:20;26.30;;;13.27;;
21183;SDS011;18176;49.502;11.754;2023-08-01T15:01:22;1.02;;;1.02;;
21183;SDS011;18176;49.502;11.754;2023-08-01T15:05:28;1.30;;;1.13;;
21183;SDS011;18176;49.502;11.754;2023-08-01T15:09:34;1.38;;;1.00;;
21183;SDS011;18176;49.502;11.754;2023-08-01T15:13:45;2.75;;;1.10;;
21183;SDS011;18176;49.502;11.754;2023-08-01T15:17:49;1.25;;;1.02;;
21183;SDS011;18176;49.502;11.754;2023-08-01T15:21:56;1.38;;;0.90;;
21183;SDS011;18176;49.502;11.754;2023-08-01T15:25:57;1.65;;;0.85;;
21183;SDS011;18176;49.502;11.754;2023-08-01T15:30:01;1.13;;;0.80;;
21183;SDS011;18176;49.502;11.754;2023-08-01T15:34:02;1.02;;;0.88;;
21183;SDS011;18176;49.502;11.754;2023-08-01T15:38:04;1.55;;;0.93;;
21183;SDS011;18176;49.502;11.754;2023-08-01T15:42:06;1.05;;;1.00;;
21183;SDS011;18176;49.502;11.754;2023-08-01T15:46:09;0.80;;;0.80;;
21183;SDS011;18176;49.502;11.754;2023-08-01T15:50:11;1.77;;;1.15;;
21183;SDS011;18176;49.502;11.754;2023-08-01T15:54:11;0.80;;;0.80;;
21183;SDS011;18176;49.502;11.754;2023-08-01T15:58:11;1.40;;;1.00;;
21183;SDS011;18176;49.502;11.754;2023-08-01T16:02:14;1.05;;;0.80;;
21183;SDS011;18176;49.502;11.754;2023-08-01T16:06:15;1.00;;;0.90;;
21183;SDS011;18176;49.502;11.754;2023-08-01T16:10:15;2.38;;;1.20;;
21183;SDS011;18176;49.502;11.754;2023-08-01T16:14:16;1.45;;;0.98;;
21183;SDS011;18176;49.502;11.754;2023-08-01T16:18:37;1.45;;;1.00;;
21183;SDS011;18176;49.502;11.754;2023-08-01T16:22:37;1.75;;;1.27;;
21183;SDS011;18176;49.502;11.754;2023-08-01T16:26:37;1.30;;;1.00;;
21183;SDS011;18176;49.502;11.754;2023-08-01T16:30:38;4.20;;;1.30;;
21183;SDS011;18176;49.502;11.754;2023-08-01T16:34:40;1.52;;;1.20;;
21183;SDS011;18176;49.502;11.754;2023-08-01T16:38:41;3.35;;;1.38;;
21183;SDS011;18176;49.502;11.754;2023-08-01T16:42:41;1.98;;;1.27;;
21183;SDS011;18176;49.502;11.754;2023-08-01T16:46:42;1.85;;;1.23;;
21183;SDS011;18176;49.502;11.754;2023-08-01T16:50:45;2.13;;;1.20;;
21183;SDS011;18176;49.502;11.754;2023-08-01T16:54:45;2.35;;;1.20;;
21183;SDS011;18176;49.502;11.754;2023-08-01T16:58:46;1.73;;;1.25;;
21183;SDS011;18176;49.502;11.754;2023-08-01T17:02:47;1.75;;;1.30;;
21183;SDS011;18176;49.502;11.754;2023-08-01T17:06:50;1.77;;;1.27;;
21183;SDS011;18176;49.502;11.754;2023-08-01T17:10:50;1.52;;;1.20;;
21183;SDS011;18176;49.502;11.754;2023-08-01T17:14:51;3.60;;;1.50;;
21183;SDS011;18176;49.502;11.754;2023-08-01T17:18:51;3.67;;;1.52;;
21183;SDS011;18176;49.502;11.754;2023-08-01T17:22:54;1.77;;;1.50;;
21183;SDS011;18176;49.502;11.754;2023-08-01T17:26:54;1.50;;;1.40;;
21183;SDS011;18176;49.502;11.754;2023-08-01T17:30:55;1.75;;;1.58;;
21183;SDS011;18176;49.502;11.754;2023-08-01T17:34:55;2.30;;;1.30;;
21183;SDS011;18176;49.502;11.754;2023-08-01T17:38:58;3.42;;;1.75;;
21183;SDS011;18176;49.502;11.754;2023-08-01T17:42:59;3.17;;;1.45;;
21183;SDS011;18176;49.502;11.754;2023-08-01T17:47:00;2.97;;;1.77;;
21183;SDS011;18176;49.502;11.754;2023-08-01T17:51:02;3.15;;;1.77;;
21183;SDS011;18176;49.502;11.754;2023-08-01T17:55:08;2.60;;;1.60;;
21183;SDS011;18176;49.502;11.754;2023-08-01T17:59:08;3.60;;;1.92;;
21183;SDS011;18176;49.502;11.754;2023-08-01T18:03:11;7.10;;;2.50;;
21183;SDS011;18176;49.502;11.754;2023-08-01T18:07:12;4.55;;;2.20;;
21183;SDS011;18176;49.502;11.754;2023-08-01T18:11:16;2.40;;;1.75;;
21183;SDS011;18176;49.502;11.754;2023-08-01T18:15:19;4.30;;;2.00;;
21183;SDS011;18176;49.502;11.754;2023-08-01T18:19:20;5.13;;;2.20;;
21183;SDS011;18176;49.502;11.754;2023-08-01T18:23:21;4.03;;;2.08;;
21183;SDS011;18176;49.502;11.754;2023-08-01T18:27:27;5.05;;;2.17;;
21183;SDS011;18176;49.502;11.754;2023-08-01T18:31:31;3.33;;;2.00;;
21183;SDS011;18176;49.502;11.754;2023-08-01T18:35:39;4.13;;;2.35;;
21183;SDS011;18176;49.502;11.754;2023-08-01T18:39:41;4.53;;;2.10;;
21183;SDS011;18176;49.502;11.754;2023-08-01T18:43:44;5.57;;;1.77;;
21183;SDS011;18176;49.502;11.754;2023-08-01T18:47:45;2.92;;;1.80;;
21183;SDS011;18176;49.502;11.754;2023-08-01T18:51:49;4.13;;;1.67;;
21183;SDS011;18176;49.502;11.754;2023-08-01T19:00:16;3.67;;;1.67;;
21183;SDS011;18176;49.502;11.754;2023-08-01T19:04:17;2.58;;;1.70;;
21183;SDS011;18176;49.502;11.754;2023-08-01T19:08:20;3.10;;;1.58;;
21183;SDS011;18176;49.502;11.754;2023-08-01T19:12:20;3.28;;;1.95;;
21183;SDS011;18176;49.502;11.754;2023-08-01T19:16:28;3.95;;;1.73;;
21183;SDS011;18176;49.502;11.754;2023-08-01T19:20:30;2.83;;;1.70;;
21183;SDS011;18176;49.502;11.754;2023-08-01T19:24:30;3.55;;;2.10;;
21183;SDS011;18176;49.502;11.754;2023-08-01T19:28:31;3.65;;;1.95;;
21183;SDS011;18176;49.502;11.754;2023-08-01T19:32:36;2.55;;;2.00;;
21183;SDS011;18176;49.502;11.754;2023-08-01T19:36:37;2.55;;;1.63;;
21183;SDS011;18176;49.502;11.754;2023-08-01T19:40:38;2.85;;;1.60;;
21183;SDS011;18176;49.502;11.754;2023-08-01T19:44:41;4.90;;;1.95;;
21183;SDS011;18176;49.502;11.754;2023-08-01T19:48:44;3.03;;;1.92;;
21183;SDS011;18176;49.502;11.754;2023-08-01T19:52:49;3.63;;;2.10;;
21183;SDS011;18176;49.502;11.754;2023-08-01T19:56:52;4.50;;;1.75;;
21183;SDS011;18176;49.502;11.754;2023-08-01T20:00:53;3.72;;;2.05;;
21183;SDS011;18176;49.502;11.754;2023-08-01T20:04:57;2.55;;;1.95;;
21183;SDS011;18176;49.502;11.754;2023-08-01T20:08:57;3.25;;;1.83;;
21183;SDS011;18176;49.502;11.754;2023-08-01T20:12:58;3.50;;;1.90;;
21183;SDS011;18176;49.502;11.754;2023-08-01T20:16:59;2.88;;;2.00;;
21183;SDS011;18176;49.502;11.754;2023-08-01T20:21:02;3.05;;;1.70;;
21183;SDS011;18176;49.502;11.754;2023-08-01T20:25:03;3.57;;;1.87;;
21183;SDS011;18176;49.502;11.754;2023-08-01T20:29:04;3.10;;;2.00;;
21183;SDS011;18176;49.502;11.754;2023-08-01T20:33:04;3.38;;;1.88;;
21183;SDS011;18176;49.502;11.754;2023-08-01T20:37:08;5.10;;;1.88;;
21183;SDS011;18176;49.502;11.754;2023-08-01T20:41:11;2.75;;;1.88;;
21183;SDS011;18176;49.502;11.754;2023-08-01T20:45:12;3.43;;;1.90;;
21183;SDS011;18176;49.502;11.754;2023-08-01T20:49:12;3.60;;;1.80;;
21183;SDS011;18176;49.502;11.754;2023-08-01T20:53:15;3.00;;;1.80;;
21183;SDS011;18176;49.502;11.754;2023-08-01T20:57:16;4.00;;;1.90;;
21183;SDS011;18176;49.502;11.754;2023-08-01T21:01:16;3.45;;;1.80;;
21183;SDS011;18176;49.502;11.754;2023-08-01T21:05:17;4.85;;;2.00;;
21183;SDS011;18176;49.502;11.754;2023-08-01T21:09:20;3.28;;;1.65;;
21183;SDS011;18176;49.502;11.754;2023-08-01T21:13:20;4.27;;;1.70;;
21183;SDS011;18176;49.502;11.754;2023-08-01T21:17:21;4.63;;;1.80;;
21183;SDS011;18176;49.502;11.754;2023-08-01T21:21:21;2.43;;;1.90;;
21183;SDS011;18176;49.502;11.754;2023-08-01T21:25:24;3.33;;;1.67;;
21183;SDS011;18176;49.502;11.754;2023-08-01T21:29:24;3.90;;;1.93;;
21183;SDS011;18176;49.502;11.754;2023-08-01T21:33:25;7.23;;;2.00;;
21183;SDS011;18176;49.502;11.754;2023-08-01T21:37:25;3.33;;;1.87;;
21183;SDS011;18176;49.502;11.754;2023-08-01T21:41:28;3.73;;;2.10;;
21183;SDS011;18176;49.502;11.754;2023-08-01T21:45:28;2.77;;;1.80;;
21183;SDS011;18176;49.502;11.754;2023-08-01T21:49:29;2.03;;;1.57;;
21183;SDS011;18176;49.502;11.754;2023-08-01T21:53:29;3.93;;;1.80;;
21183;SDS011;18176;49.502;11.754;2023-08-01T21:57:33;3.60;;;1.70;;
21183;SDS011;18176;49.502;11.754;2023-08-01T22:01:33;3.93;;;2.03;;
21183;SDS011;18176;49.502;11.754;2023-08-01T22:05:33;6.22;;;1.90;;
21183;SDS011;18176;49.502;11.754;2023-08-01T22:09:34;4.03;;;2.00;;
21183;SDS011;18176;49.502;11.754;2023-08-01T22:13:37;4.70;;;2.15;;
21183;SDS011;18176;49.502;11.754;2023-08-01T22:17:37;3.63;;;1.90;;
21183;SDS011;18176;49.502;11.754;2023-08-01T22:21:38;3.80;;;1.93;;
21183;SDS011;18176;49.502;11.754;2023-08-01T22:25:38;4.10;;;2.13;;
21183;SDS011;18176;49.502;11.754;2023-08-01T22:29:41;4.20;;;2.10;;
21183;SDS011;18176;49.502;11.754;2023-08-01T22:33:42;4.00;;;2.10;;
21183;SDS011;18176;49.502;11.754;2023-08-01T22:37:42;5.83;;;2.00;;
21183;SDS011;18176;49.502;11.754;2023-08-01T22:41:42;4.32;;;1.95;;
21183;SDS011;18176;49.502;11.754;2023-08-01T22:45:45;5.97;;;2.10;;
21183;SDS011;18176;49.502;11.754;2023-08-01T22:49:54;3.85;;;2.05;;
21183;SDS011;18176;49.502;11.754;2023-08-01T22:54:02;4.95;;;2.05;;
21183;SDS011;18176;49.502;11.754;2023-08-01T22:58:03;3.53;;;2.00;;
21183;SDS011;18176;49.502;11.754;2023-08-01T23:02:06;4.90;;;2.35;;
21183;SDS011;18176;49.502;11.754;2023-08-01T23:06:06;5.97;;;2.20;;
21183;SDS011;18176;49.502;11.754;2023-08-01T23:10:07;9.17;;;2.53;;
21183;SDS011;18176;49.502;11.754;2023-08-01T23:14:08;4.80;;;2.15;;
21183;SDS011;18176;49.502;11.754;2023-08-01T23:18:11;6.28;;;2.30;;
21183;SDS011;18176;49.502;11.754;2023-08-01T23:22:11;4.55;;;2.38;;
21183;SDS011;18176;49.502;11.754;2023-08-01T23:26:11;5.60;;;2.42;;
21183;SDS011;18176;49.502;11.754;2023-08-01T23:30:12;4.75;;;2.60;;
21183;SDS011;18176;49.502;11.754;2023-08-01T23:34:15;6.60;;;2.60;;
21183;SDS011;18176;49.502;11.754;2023-08-01T23:38:15;3.70;;;2.40;;
21183;SDS011;18176;49.502;11.754;2023-08-01T23:42:17;5.55;;;2.67;;
21183;SDS011;18176;49.502;11.754;2023-08-01T23:46:17;5.22;;;2.47;;
21183;SDS011;18176;49.502;11.754;2023-08-01T23:50:24;8.67;;;2.40;;
21183;SDS011;18176;49.502;11.754;2023-08-01T23:54:24;3.97;;;2.40;;
21183;SDS011;18176;49.502;11.754;2023-08-01T23:58:25;6.80;;;2.47;;
